East Harwich, Massachusetts
Current Conditions -  °F | °C
As of 4:52 PM on Sunday 25 Jan 2015 (Local Time) from KCQX Reporting Station
Clear Clear  
Wind Chill: 29°   Ceiling: Unl
Heat Index: 34°   Visibility: 10mi
Dew Point: 17°   Wind: 6mph
Humidity: 50%   Direction: NA
Pressure: 29.77"   Gusts: NA
Location:  41.7026°N, 70.0637°W
Report Text: KCQX 252152Z AUTO VRB05KT 10SM CLR 01/M08 A2977 RMK AO2 SLP082 T00111083
Loading
Personal Weather Stations






























Interactive Weather Map New forecast layout! Learn more

10-Day Weather Forecast

Advertisements
Track Severe Weather on mobile